Time;durP1;ratioP1;P1;durP2;ratioP2;P2;SDS_P1;SDS_P2;PMS_P1;PMS_P2;Temp;Humidity;BMP_temperature;BMP_pressure;BME280_temperature;BME280_humidity;BME280_pressure;Samples;Min_cycle;Max_cycle;Signal;HPM_P1;HPM_P2
2021/01/25 00:00:28;;;;;;;7.97;1.27;;;9.00;67.20;;;;;;2097491;28;20040;-72
2021/01/25 00:01:31;;;;;;;2.00;0.90;;;9.30;67.90;;;;;;2097472;28;20051;-72
2021/01/25 00:02:32;;;;;;;3.20;1.10;;;9.60;67.70;;;;;;2097291;28;20064;-71
2021/01/25 00:03:34;;;;;;;2.28;0.88;;;9.90;64.70;;;;;;2097629;28;20045;-73
2021/01/25 00:04:38;;;;;;;4.20;1.33;;;9.80;66.10;;;;;;2097550;28;20127;-73
2021/01/25 00:05:40;;;;;;;2.50;1.00;;;9.80;65.50;;;;;;2097622;28;20127;-71
2021/01/25 00:06:42;;;;;;;1.98;0.90;;;9.80;65.70;;;;;;2097450;28;20071;-73
2021/01/25 00:07:44;;;;;;;5.07;1.38;;;9.70;64.30;;;;;;2097482;28;20051;-71
2021/01/25 00:08:45;;;;;;;5.28;1.25;;;8.70;63.60;;;;;;2105240;28;20520;-73
2021/01/25 00:09:47;;;;;;;5.05;1.15;;;8.40;70.30;;;;;;2105053;28;20067;-71
2021/01/25 00:10:48;;;;;;;2.17;1.02;;;8.60;70.60;;;;;;2097606;28;20059;-72
2021/01/25 00:11:50;;;;;;;2.17;0.75;;;9.20;72.60;;;;;;2097709;28;20056;-73
2021/01/25 00:12:52;;;;;;;4.13;1.10;;;9.70;69.60;;;;;;2097313;28;20428;-70
2021/01/25 00:13:53;;;;;;;4.97;1.20;;;9.10;64.30;;;;;;2097586;28;20040;-71
2021/01/25 00:14:55;;;;;;;4.70;1.63;;;8.70;66.00;;;;;;2097476;28;20048;-73
2021/01/25 00:15:57;;;;;;;2.55;1.02;;;8.80;67.80;;;;;;2097417;28;20045;-73
2021/01/25 00:17:00;;;;;;;2.65;1.20;;;9.30;70.50;;;;;;2097520;28;20047;-73
2021/01/25 00:18:02;;;;;;;7.10;1.30;;;9.30;68.50;;;;;;2097357;28;20048;-73
2021/01/25 00:19:04;;;;;;;;;;;9.60;66.80;;;;;;2098046;28;20048;-70
2021/01/25 00:20:07;;;;;;;2.42;1.00;;;9.80;66.30;;;;;;2097502;28;20309;-71
2021/01/25 00:21:09;;;;;;;5.55;1.45;;;10.40;65.10;;;;;;2097396;28;20123;-73
2021/01/25 00:22:10;;;;;;;2.30;0.85;;;10.10;61.40;;;;;;2097304;28;20045;-72
2021/01/25 00:23:12;;;;;;;4.07;1.33;;;10.30;63.50;;;;;;2097506;28;20051;-71
2021/01/25 00:24:14;;;;;;;3.30;1.25;;;10.10;62.90;;;;;;2097316;28;20044;-73
2021/01/25 00:25:15;;;;;;;6.07;1.02;;;10.10;63.00;;;;;;2097487;28;20048;-74
2021/01/25 00:26:17;;;;;;;3.58;1.10;;;10.40;62.30;;;;;;2097385;28;20052;-72
2021/01/25 00:27:19;;;;;;;4.45;1.50;;;10.10;60.50;;;;;;2097684;28;20056;-71
2021/01/25 00:28:20;;;;;;;5.68;1.10;;;9.30;61.00;;;;;;2097520;28;20060;-73
2021/01/25 00:29:22;;;;;;;3.75;1.02;;;8.20;65.70;;;;;;2097915;28;20079;-73
2021/01/25 00:30:24;;;;;;;6.10;1.30;;;8.40;69.10;;;;;;2097391;28;20048;-72
2021/01/25 00:31:26;;;;;;;3.40;1.08;;;9.10;71.30;;;;;;2097306;28;20049;-72
2021/01/25 00:32:28;;;;;;;2.97;1.05;;;9.30;69.30;;;;;;2097272;28;20063;-71
2021/01/25 00:33:30;;;;;;;3.22;1.10;;;9.60;64.90;;;;;;2097896;28;20167;-71
2021/01/25 00:34:32;;;;;;;6.47;1.17;;;10.10;67.60;;;;;;2097823;28;20047;-72
2021/01/25 00:35:33;;;;;;;4.45;1.17;;;10.10;62.00;;;;;;2098353;28;20052;-72
2021/01/25 00:36:35;;;;;;;2.88;1.00;;;10.40;63.20;;;;;;2098340;28;20059;-72
2021/01/25 00:37:37;;;;;;;3.10;1.13;;;10.40;64.10;;;;;;2097403;28;20048;-72
2021/01/25 00:38:39;;;;;;;4.22;1.10;;;10.50;63.00;;;;;;2097468;28;20369;-71
2021/01/25 00:39:40;;;;;;;5.88;1.25;;;10.30;60.60;;;;;;2096749;28;20049;-73
2021/01/25 00:40:42;;;;;;;2.00;0.90;;;9.90;60.00;;;;;;2097084;28;20044;-71
2021/01/25 00:41:44;;;;;;;2.97;1.10;;;9.20;64.40;;;;;;2097288;28;20531;-71
2021/01/25 00:42:46;;;;;;;7.32;1.92;;;9.10;66.40;;;;;;2097176;28;20076;-72
2021/01/25 00:43:47;;;;;;;4.10;1.42;;;8.60;66.10;;;;;;2097386;28;20044;-73
2021/01/25 00:44:49;;;;;;;4.97;1.30;;;8.20;69.10;;;;;;2097351;28;20040;-73
2021/01/25 00:45:53;;;;;;;3.95;1.17;;;7.40;70.40;;;;;;2097215;28;20123;-72
2021/01/25 00:46:56;;;;;;;5.50;1.48;;;7.40;76.10;;;;;;2097244;28;20048;-70
2021/01/25 00:47:58;;;;;;;2.55;1.00;;;7.80;75.30;;;;;;2096626;28;20128;-71
2021/01/25 00:49:00;;;;;;;1.17;0.73;;;7.90;71.30;;;;;;2096694;28;20051;-72
2021/01/25 00:50:03;;;;;;;5.75;1.05;;;7.80;76.00;;;;;;2097349;28;20060;-72
2021/01/25 00:51:05;;;;;;;3.83;1.27;;;8.10;71.50;;;;;;2097160;28;20072;-73
2021/01/25 00:52:07;;;;;;;3.42;1.08;;;8.60;70.30;;;;;;2097179;28;20045;-70
2021/01/25 00:53:08;;;;;;;;;;;8.60;70.50;;;;;;2097501;28;20048;-72
2021/01/25 00:54:10;;;;;;;3.50;1.00;;;9.20;72.20;;;;;;2097320;28;19927;-72
2021/01/25 00:55:13;;;;;;;5.47;1.00;;;9.50;68.80;;;;;;2097231;28;20547;-72
2021/01/25 00:56:15;;;;;;;2.42;0.98;;;9.80;68.30;;;;;;2097285;28;20045;-70
2021/01/25 00:57:17;;;;;;;1.33;0.88;;;9.50;66.70;;;;;;2097157;28;20049;-70
2021/01/25 00:58:18;;;;;;;3.80;1.00;;;9.90;65.20;;;;;;2097080;28;20048;-71
2021/01/25 00:59:20;;;;;;;3.53;1.00;;;9.20;67.80;;;;;;2097410;28;20047;-72
2021/01/25 01:00:22;;;;;;;3.17;1.15;;;9.10;66.00;;;;;;2097318;28;20071;-72
2021/01/25 01:01:24;;;;;;;4.97;1.30;;;9.20;68.10;;;;;;2097370;28;20059;-74
2021/01/25 01:02:27;;;;;;;3.88;1.23;;;9.10;67.90;;;;;;2097319;28;20071;-74
2021/01/25 01:03:29;;;;;;;3.25;1.20;;;9.00;67.30;;;;;;2097062;28;20561;-73
2021/01/25 01:04:30;;;;;;;6.10;1.17;;;8.90;67.70;;;;;;2097359;28;20055;-73
2021/01/25 01:05:32;;;;;;;2.95;0.85;;;8.50;68.50;;;;;;2097119;28;20055;-71
2021/01/25 01:06:33;;;;;;;2.67;0.73;;;8.70;71.00;;;;;;2097185;28;20056;-71
2021/01/25 01:07:35;;;;;;;2.08;1.00;;;8.50;70.90;;;;;;2097049;28;20044;-72
2021/01/25 01:08:37;;;;;;;2.78;1.02;;;8.30;72.90;;;;;;2097332;28;20056;-71
2021/01/25 01:09:38;;;;;;;4.05;1.02;;;8.00;74.60;;;;;;2097101;28;20048;-73
2021/01/25 01:10:40;;;;;;;5.30;1.15;;;7.90;74.30;;;;;;2097115;28;20048;-71
2021/01/25 01:11:42;;;;;;;3.95;1.17;;;8.00;71.70;;;;;;2097108;28;20044;-72
2021/01/25 01:12:43;;;;;;;3.80;0.88;;;8.30;72.90;;;;;;2097216;28;20516;-73
2021/01/25 01:13:45;;;;;;;4.13;1.05;;;8.90;71.70;;;;;;2097310;28;20044;-72
2021/01/25 01:14:47;;;;;;;5.95;1.10;;;9.10;71.50;;;;;;2097076;28;20055;-73
2021/01/25 01:15:48;;;;;;;2.95;1.20;;;9.00;70.80;;;;;;2097208;28;20134;-71
2021/01/25 01:16:50;;;;;;;7.28;1.05;;;8.50;68.40;;;;;;2097103;28;20040;-72
2021/01/25 01:17:53;;;;;;;8.93;1.15;;;8.40;71.50;;;;;;2097079;28;20048;-72
2021/01/25 01:18:54;;;;;;;3.45;1.10;;;8.00;73.00;;;;;;2097347;28;20049;-70
2021/01/25 01:19:56;;;;;;;2.58;1.15;;;8.30;74.60;;;;;;2097176;28;20048;-72
2021/01/25 01:20:58;;;;;;;2.88;0.90;;;8.60;72.40;;;;;;2097313;28;20048;-72
2021/01/25 01:21:59;;;;;;;4.35;1.23;;;9.20;72.70;;;;;;2097226;28;20195;-73
2021/01/25 01:23:01;;;;;;;1.58;0.88;;;9.00;67.90;;;;;;2097326;28;20052;-71
2021/01/25 01:24:04;;;;;;;2.75;0.98;;;9.30;69.40;;;;;;2097209;28;20044;-73
2021/01/25 01:25:08;;;;;;;5.45;1.33;;;9.40;68.90;;;;;;2097085;28;20484;-71
2021/01/25 01:26:10;;;;;;;1.98;1.00;;;9.50;66.10;;;;;;2097029;28;20493;-70
2021/01/25 01:27:11;;;;;;;1.75;0.85;;;9.50;66.70;;;;;;2097194;28;20045;-69
2021/01/25 01:28:13;;;;;;;5.03;1.00;;;9.20;66.80;;;;;;2096969;28;20488;-71
2021/01/25 01:29:15;;;;;;;2.53;0.60;;;8.70;66.80;;;;;;2097161;28;20040;-71
2021/01/25 01:30:17;;;;;;;2.03;0.52;;;8.60;69.30;;;;;;2097197;28;20048;-73
2021/01/25 01:31:18;;;;;;;;;;;8.70;72.30;;;;;;2097632;28;20075;-71
2021/01/25 01:32:20;;;;;;;2.30;0.93;;;8.50;71.20;;;;;;2097155;28;20472;-73
2021/01/25 01:33:23;;;;;;;1.20;0.55;;;8.90;69.20;;;;;;2097196;28;20049;-71
2021/01/25 01:34:24;;;;;;;2.47;0.85;;;9.30;68.70;;;;;;2104822;28;20044;-73
2021/01/25 01:35:26;;;;;;;2.47;0.90;;;9.10;67.30;;;;;;2104713;28;20105;-72
2021/01/25 01:36:38;;;;;;;4.60;0.80;;;8.90;65.40;;;;;;2097064;28;20484;-74
2021/01/25 01:37:40;;;;;;;3.63;0.90;;;8.50;67.90;;;;;;2104938;28;20055;-73
2021/01/25 01:38:42;;;;;;;3.75;1.10;;;8.40;68.40;;;;;;2104532;28;20627;-72
2021/01/25 01:39:43;;;;;;;4.25;0.70;;;7.90;72.10;;;;;;2097112;28;20098;-73
2021/01/25 01:40:45;;;;;;;3.67;0.60;;;8.00;73.10;;;;;;2097188;28;20048;-72
2021/01/25 01:41:47;;;;;;;1.35;0.70;;;7.90;72.20;;;;;;2097241;28;20051;-72
2021/01/25 01:42:48;;;;;;;3.38;0.70;;;8.50;72.90;;;;;;2097033;28;20055;-73
2021/01/25 01:43:50;;;;;;;2.17;0.63;;;8.60;70.50;;;;;;2097186;28;20044;-72
2021/01/25 01:44:52;;;;;;;2.47;0.88;;;8.70;70.90;;;;;;2096960;28;20501;-73
2021/01/25 01:45:53;;;;;;;2.42;0.70;;;8.70;69.60;;;;;;2097546;28;20067;-73
2021/01/25 01:46:55;;;;;;;2.17;0.82;;;8.40;69.70;;;;;;2097242;28;20044;-73
2021/01/25 01:47:58;;;;;;;1.08;0.50;;;8.10;70.40;;;;;;2104978;28;20098;-71
2021/01/25 01:49:02;;;;;;;1.92;0.75;;;8.00;72.70;;;;;;2104956;28;20138;-72
2021/01/25 01:50:05;;;;;;;1.38;0.63;;;8.60;71.90;;;;;;2098752;28;20044;-72
2021/01/25 01:51:08;;;;;;;4.30;0.77;;;8.90;71.20;;;;;;2099102;28;20041;-73
2021/01/25 01:52:10;;;;;;;1.50;0.70;;;8.80;69.60;;;;;;2099501;28;20055;-72
2021/01/25 01:53:12;;;;;;;2.42;0.70;;;8.70;72.10;;;;;;2099335;28;20455;-71
2021/01/25 01:54:14;;;;;;;1.55;0.73;;;8.60;70.50;;;;;;2099346;28;20051;-71
2021/01/25 01:55:18;;;;;;;1.30;0.70;;;9.00;69.70;;;;;;2099323;28;20044;-72
2021/01/25 01:56:20;;;;;;;1.45;0.70;;;8.90;69.30;;;;;;2099178;28;20040;-71
2021/01/25 01:57:23;;;;;;;1.55;0.57;;;8.80;70.10;;;;;;2099608;28;20426;-73
2021/01/25 01:58:28;;;;;;;2.67;0.77;;;9.00;69.20;;;;;;2100182;28;20051;-71
2021/01/25 01:59:30;;;;;;;1.85;0.57;;;9.50;69.90;;;;;;2099501;28;20044;-72
2021/01/25 02:00:33;;;;;;;3.55;0.90;;;9.50;68.50;;;;;;2098283;28;20127;-72
2021/01/25 02:01:36;;;;;;;2.03;1.02;;;9.40;68.20;;;;;;2098459;28;20056;-71
2021/01/25 02:02:38;;;;;;;4.30;0.90;;;9.50;68.10;;;;;;2098326;28;20554;-73
2021/01/25 02:03:40;;;;;;;1.23;0.60;;;9.60;66.60;;;;;;2098342;28;20439;-72
2021/01/25 02:04:44;;;;;;;1.35;0.80;;;9.50;65.60;;;;;;2098346;28;20071;-72
2021/01/25 02:05:45;;;;;;;1.83;0.60;;;10.10;67.90;;;;;;2098443;28;20052;-74
2021/01/25 02:06:49;;;;;;;1.90;0.60;;;10.40;65.80;;;;;;2098499;28;20040;-71
2021/01/25 02:07:52;;;;;;;1.15;0.50;;;10.40;65.20;;;;;;2098264;28;20406;-71
2021/01/25 02:08:58;;;;;;;1.45;0.75;;;10.50;61.40;;;;;;2098438;28;20071;-73
2021/01/25 02:10:02;;;;;;;1.73;0.82;;;9.70;64.80;;;;;;2098266;28;20093;-71
2021/01/25 02:11:05;;;;;;;1.08;0.50;;;10.00;64.80;;;;;;2098437;28;20557;-73
2021/01/25 02:12:08;;;;;;;2.50;0.85;;;10.10;65.70;;;;;;2098198;28;20059;-70
2021/01/25 02:13:10;;;;;;;2.05;0.60;;;10.00;63.70;;;;;;2098334;28;20055;-72
2021/01/25 02:14:13;;;;;;;1.65;0.70;;;10.00;63.60;;;;;;2098347;28;20087;-71
2021/01/25 02:15:17;;;;;;;1.23;0.45;;;9.60;65.70;;;;;;2098259;28;20397;-73
2021/01/25 02:16:19;;;;;;;1.02;0.80;;;9.80;67.20;;;;;;2098300;28;20045;-72
2021/01/25 02:17:20;;;;;;;1.92;0.60;;;10.10;66.10;;;;;;2098393;28;20048;-71
2021/01/25 02:18:22;;;;;;;2.08;0.93;;;9.90;65.50;;;;;;2098236;28;20170;-70
2021/01/25 02:19:29;;;;;;;1.38;0.63;;;9.90;63.60;;;;;;2098290;28;20059;-71
2021/01/25 02:20:34;;;;;;;1.27;0.80;;;10.50;65.80;;;;;;2098065;28;20513;-73
2021/01/25 02:21:41;;;;;;;2.28;0.82;;;10.40;64.80;;;;;;2098240;28;20091;-71
2021/01/25 02:23:03;;;;;;;1.63;0.60;;;10.30;63.20;;;;;;2098222;28;20400;-70
2021/01/25 02:24:23;;;;;;;1.60;0.70;;;10.40;62.10;;;;;;2098445;28;20056;-71
2021/01/25 02:25:39;;;;;;;1.90;0.88;;;10.40;61.40;;;;;;2098351;28;20049;-73
2021/01/25 02:26:55;;;;;;;2.17;0.93;;;10.30;60.40;;;;;;2098095;28;20054;-71
2021/01/25 02:27:59;;;;;;;2.33;0.90;;;10.00;61.70;;;;;;2098333;28;20044;-74
2021/01/25 02:29:03;;;;;;;0.88;0.55;;;9.50;62.50;;;;;;2098190;28;20113;-73
2021/01/25 02:30:07;;;;;;;1.38;0.73;;;9.50;65.90;;;;;;2098229;28;20059;-72
2021/01/25 02:31:10;;;;;;;1.13;0.75;;;9.00;64.50;;;;;;2098131;28;20059;-71
2021/01/25 02:32:12;;;;;;;1.83;0.95;;;9.30;68.30;;;;;;2098273;28;20055;-71
2021/01/25 02:33:16;;;;;;;1.83;0.85;;;9.50;65.30;;;;;;2098212;28;20059;-71
2021/01/25 02:34:19;;;;;;;3.30;0.82;;;9.80;64.10;;;;;;2098287;28;20492;-72
2021/01/25 02:35:21;;;;;;;4.53;0.98;;;9.60;65.00;;;;;;2098210;28;20048;-73
2021/01/25 02:36:24;;;;;;;2.60;0.95;;;9.00;63.70;;;;;;2098460;28;20044;-71
2021/01/25 02:37:26;;;;;;;1.52;0.88;;;8.90;65.70;;;;;;2098101;28;20477;-73
2021/01/25 02:38:29;;;;;;;2.72;0.82;;;8.50;66.60;;;;;;2097997;28;20044;-73
2021/01/25 02:39:32;;;;;;;2.42;1.10;;;8.60;68.50;;;;;;2098050;28;20098;-71
2021/01/25 02:40:34;;;;;;;1.83;0.93;;;8.80;69.10;;;;;;2098239;28;20048;-73
2021/01/25 02:41:36;;;;;;;4.25;1.10;;;8.80;67.50;;;;;;2098303;28;20059;-71
2021/01/25 02:42:40;;;;;;;1.23;0.65;;;8.80;69.80;;;;;;2098437;28;20080;-71
2021/01/25 02:43:44;;;;;;;3.25;1.00;;;9.10;70.40;;;;;;2098121;28;20041;-71
2021/01/25 02:44:47;;;;;;;1.63;0.95;;;9.10;67.40;;;;;;2098244;28;20044;-72
2021/01/25 02:45:50;;;;;;;1.75;0.65;;;9.20;68.50;;;;;;2098230;28;20409;-73
2021/01/25 02:46:52;;;;;;;1.17;0.60;;;8.90;69.90;;;;;;2098237;28;20488;-72
2021/01/25 02:47:55;;;;;;;1.92;0.88;;;9.30;68.70;;;;;;2097921;28;20048;-73
2021/01/25 02:48:57;;;;;;;2.47;0.90;;;9.40;66.30;;;;;;2098280;28;20044;-73
2021/01/25 02:49:59;;;;;;;1.60;1.00;;;9.10;65.60;;;;;;2098108;28;20072;-73
2021/01/25 02:51:01;;;;;;;1.60;0.70;;;8.90;69.10;;;;;;2098219;28;20044;-74
2021/01/25 02:52:05;;;;;;;1.77;0.80;;;9.40;68.20;;;;;;2098017;28;20045;-73
2021/01/25 02:53:07;;;;;;;1.83;0.90;;;9.70;65.80;;;;;;2098095;28;20381;-72
2021/01/25 02:54:08;;;;;;;2.08;0.85;;;9.90;66.70;;;;;;2098030;28;20051;-74
2021/01/25 02:55:10;;;;;;;1.30;0.90;;;9.90;66.00;;;;;;2098069;28;20532;-72
2021/01/25 02:56:13;;;;;;;2.25;1.10;;;9.50;64.50;;;;;;2097990;28;20055;-71
2021/01/25 02:57:16;;;;;;;3.58;0.88;;;9.30;67.40;;;;;;2097979;28;20044;-72
2021/01/25 02:58:19;;;;;;;1.20;0.68;;;10.00;65.00;;;;;;2097821;28;20078;-71
2021/01/25 02:59:21;;;;;;;2.40;0.80;;;10.20;66.10;;;;;;2098011;28;20477;-72
2021/01/25 03:00:23;;;;;;;2.47;1.25;;;10.20;63.80;;;;;;2097504;28;20056;-71
2021/01/25 03:01:26;;;;;;;1.35;0.80;;;10.20;63.40;;;;;;2098142;28;20049;-72
2021/01/25 03:02:28;;;;;;;3.65;1.30;;;10.30;61.80;;;;;;2097803;28;20055;-72
2021/01/25 03:03:31;;;;;;;2.67;0.93;;;9.70;61.40;;;;;;2098117;28;20124;-72
2021/01/25 03:04:34;;;;;;;2.85;0.90;;;9.80;62.80;;;;;;2097872;28;20049;-72
2021/01/25 03:05:36;;;;;;;1.27;0.85;;;9.90;65.60;;;;;;2097963;28;20048;-73
2021/01/25 03:06:37;;;;;;;;;;;10.40;65.80;;;;;;2098358;28;20053;-72
2021/01/25 03:07:40;;;;;;;2.60;1.20;;;9.80;62.90;;;;;;2098085;28;19920;-71
2021/01/25 03:08:45;;;;;;;1.75;1.00;;;9.70;63.20;;;;;;2097832;28;20053;-72
2021/01/25 03:09:46;;;;;;;1.85;1.15;;;9.50;63.60;;;;;;2098017;28;20055;-72
2021/01/25 03:10:48;;;;;;;2.83;1.25;;;9.60;63.10;;;;;;2097293;28;20430;-71
2021/01/25 03:11:50;;;;;;;1.67;0.93;;;9.50;66.10;;;;;;2097337;28;20041;-73
2021/01/25 03:12:52;;;;;;;3.47;0.77;;;9.70;66.40;;;;;;2097748;28;20447;-73
2021/01/25 03:14:04;;;;;;;2.85;0.90;;;9.60;66.40;;;;;;2097951;28;20052;-72
2021/01/25 03:15:09;;;;;;;1.70;1.13;;;9.60;66.60;;;;;;2098136;28;20060;-71
2021/01/25 03:16:15;;;;;;;1.00;0.50;;;10.10;64.70;;;;;;2097827;28;20045;-73
2021/01/25 03:17:16;;;;;;;2.08;0.73;;;10.40;64.00;;;;;;2097987;28;20044;-72
2021/01/25 03:18:18;;;;;;;1.98;0.80;;;10.10;64.40;;;;;;2097843;28;20049;-72
2021/01/25 03:19:20;;;;;;;0.65;0.65;;;10.70;64.70;;;;;;2098066;28;20051;-71
2021/01/25 03:20:21;;;;;;;1.80;0.75;;;11.00;62.30;;;;;;2097884;28;20411;-71
2021/01/25 03:21:23;;;;;;;2.67;1.00;;;10.80;61.40;;;;;;2097752;28;20417;-72
2021/01/25 03:22:25;;;;;;;1.20;0.57;;;10.70;60.50;;;;;;2097961;28;20083;-70
2021/01/25 03:23:26;;;;;;;2.88;0.82;;;10.80;61.90;;;;;;2097646;28;20044;-72
2021/01/25 03:24:28;;;;;;;3.55;1.15;;;10.90;60.40;;;;;;2097807;28;20409;-73
2021/01/25 03:25:30;;;;;;;3.67;1.20;;;10.80;60.10;;;;;;2097890;28;20041;-70
2021/01/25 03:26:31;;;;;;;1.10;0.70;;;10.60;58.90;;;;;;2097749;28;20563;-73
2021/01/25 03:27:33;;;;;;;2.15;1.13;;;10.80;61.70;;;;;;2097650;28;20063;-70
2021/01/25 03:28:35;;;;;;;1.90;0.80;;;11.10;60.50;;;;;;2097669;28;20437;-73
2021/01/25 03:29:36;;;;;;;1.20;0.73;;;11.10;60.30;;;;;;2097705;28;20044;-71
2021/01/25 03:30:39;;;;;;;5.18;1.20;;;11.30;60.30;;;;;;2097858;28;20497;-72
2021/01/25 03:31:41;;;;;;;3.53;1.58;;;11.00;60.70;;;;;;2097900;28;20048;-73
2021/01/25 03:32:43;;;;;;;1.90;0.80;;;11.10;59.80;;;;;;2097825;28;20447;-72
2021/01/25 03:33:45;;;;;;;4.03;1.40;;;11.40;59.50;;;;;;2097575;28;20485;-71
2021/01/25 03:34:46;;;;;;;2.53;1.20;;;11.10;57.80;;;;;;2097871;28;20127;-72
2021/01/25 03:35:48;;;;;;;1.13;0.70;;;10.70;58.50;;;;;;2097652;28;20071;-70
2021/01/25 03:36:50;;;;;;;2.53;0.90;;;10.70;60.40;;;;;;2097747;28;20041;-72
2021/01/25 03:37:52;;;;;;;1.63;1.10;;;10.70;61.60;;;;;;2097627;28;20040;-72
2021/01/25 03:38:53;;;;;;;;;;;10.20;60.60;;;;;;2097905;28;20048;-72
2021/01/25 03:39:55;;;;;;;2.47;1.08;;;10.50;61.90;;;;;;2097430;28;20273;-73
2021/01/25 03:40:57;;;;;;;2.33;0.95;;;11.20;62.10;;;;;;2097662;28;20052;-72
2021/01/25 03:41:58;;;;;;;7.35;1.13;;;10.80;61.50;;;;;;2097610;28;20056;-72
2021/01/25 03:43:00;;;;;;;2.35;1.08;;;10.60;61.00;;;;;;2097650;28;20049;-71
2021/01/25 03:44:02;;;;;;;2.67;1.02;;;10.50;60.90;;;;;;2097575;28;20056;-71
2021/01/25 03:45:05;;;;;;;2.00;1.02;;;10.40;61.20;;;;;;2097695;28;20048;-71
2021/01/25 03:46:08;;;;;;;1.88;0.70;;;11.00;61.00;;;;;;2097639;28;20052;-71
2021/01/25 03:47:10;;;;;;;2.65;0.85;;;11.20;60.90;;;;;;2097953;28;20048;-73
2021/01/25 03:48:11;;;;;;;2.72;0.82;;;11.10;61.10;;;;;;2097681;28;20044;-72
2021/01/25 03:49:14;;;;;;;4.22;1.10;;;11.30;60.50;;;;;;2098100;28;20151;-72
2021/01/25 03:50:16;;;;;;;3.53;1.25;;;11.60;59.90;;;;;;2098053;28;20051;-71
2021/01/25 03:51:19;;;;;;;;;;;10.90;57.40;;;;;;2098277;28;20067;-71
2021/01/25 03:52:20;;;;;;;2.72;1.13;;;10.60;58.20;;;;;;2097459;28;20288;-73
2021/01/25 03:53:22;;;;;;;4.20;0.85;;;10.10;62.20;;;;;;2097552;28;20060;-71
2021/01/25 03:54:24;;;;;;;1.27;0.70;;;10.20;63.50;;;;;;2097595;28;20048;-73
2021/01/25 03:55:25;;;;;;;4.03;1.60;;;9.80;64.20;;;;;;2097612;28;20045;-73
2021/01/25 03:56:27;;;;;;;1.88;0.73;;;10.00;62.10;;;;;;2097459;28;20051;-71
2021/01/25 03:57:28;;;;;;;4.20;1.02;;;10.40;64.10;;;;;;2097734;28;20045;-73
2021/01/25 03:58:30;;;;;;;1.40;0.88;;;10.90;62.50;;;;;;2097533;28;20064;-72
2021/01/25 03:59:32;;;;;;;1.38;0.60;;;11.20;61.70;;;;;;2097601;28;20401;-74
2021/01/25 04:00:33;;;;;;;2.22;0.82;;;11.50;60.00;;;;;;2097534;28;20048;-74
2021/01/25 04:01:36;;;;;;;2.78;1.20;;;11.30;59.20;;;;;;2097680;28;20045;-72
2021/01/25 04:02:38;;;;;;;2.63;0.90;;;10.90;59.00;;;;;;2097478;28;20048;-71
2021/01/25 04:03:40;;;;;;;1.63;1.10;;;10.90;59.60;;;;;;2097671;28;20109;-72
2021/01/25 04:04:41;;;;;;;1.95;0.82;;;10.90;59.80;;;;;;2097349;28;20051;-71
2021/01/25 04:05:43;;;;;;;2.25;0.80;;;10.70;60.90;;;;;;2097581;28;20072;-71
2021/01/25 04:06:44;;;;;;;1.73;1.05;;;11.30;60.80;;;;;;2097401;28;20186;-72
2021/01/25 04:07:47;;;;;;;3.13;1.25;;;10.90;58.70;;;;;;2097431;28;20049;-71
2021/01/25 04:08:48;;;;;;;1.23;0.80;;;10.30;59.10;;;;;;2097462;28;20507;-73
2021/01/25 04:09:50;;;;;;;1.45;0.75;;;10.40;60.50;;;;;;2097431;28;20044;-71
2021/01/25 04:10:54;;;;;;;4.30;0.75;;;10.50;61.40;;;;;;2097316;28;20044;-71
2021/01/25 04:11:56;;;;;;;2.22;1.00;;;10.50;61.20;;;;;;2097053;28;20048;-71
2021/01/25 04:12:57;;;;;;;1.83;0.70;;;10.30;61.50;;;;;;2097012;28;20382;-72
2021/01/25 04:13:59;;;;;;;1.08;0.60;;;10.90;61.80;;;;;;2097557;28;20048;-71
2021/01/25 04:15:01;;;;;;;1.42;1.10;;;11.20;60.40;;;;;;2097440;28;20452;-72
2021/01/25 04:16:03;;;;;;;1.42;1.02;;;10.50;57.80;;;;;;2097587;28;20059;-72
2021/01/25 04:17:06;;;;;;;1.10;0.95;;;10.40;59.90;;;;;;2097695;28;20184;-72
2021/01/25 04:18:08;;;;;;;1.35;0.75;;;10.30;62.10;;;;;;2097754;28;20045;-76
2021/01/25 04:19:09;;;;;;;;;;;10.20;61.80;;;;;;2098263;28;20243;-72
2021/01/25 04:20:11;;;;;;;1.50;0.95;;;10.70;62.20;;;;;;2098979;28;19921;-71
2021/01/25 04:21:13;;;;;;;4.75;0.95;;;10.60;60.60;;;;;;2099766;28;20147;-71
2021/01/25 04:22:15;;;;;;;2.47;0.60;;;10.30;61.30;;;;;;2099451;28;20413;-71
2021/01/25 04:23:17;;;;;;;1.73;0.80;;;10.80;62.70;;;;;;2098862;28;20048;-71
2021/01/25 04:24:19;;;;;;;1.35;0.70;;;10.90;60.80;;;;;;2097511;28;20048;-72
2021/01/25 04:25:21;;;;;;;2.08;1.00;;;10.20;59.80;;;;;;2097511;28;20067;-71
2021/01/25 04:26:22;;;;;;;1.15;1.05;;;10.10;61.30;;;;;;2097396;28;20463;-72
2021/01/25 04:27:24;;;;;;;1.38;0.98;;;10.30;61.00;;;;;;2097325;28;20053;-71
2021/01/25 04:28:26;;;;;;;1.98;1.00;;;10.10;61.50;;;;;;2097368;28;20052;-73
2021/01/25 04:29:27;;;;;;;1.83;0.93;;;10.00;59.60;;;;;;2097299;28;20063;-72
2021/01/25 04:30:29;;;;;;;1.40;0.80;;;9.80;63.70;;;;;;2097458;28;20418;-71
2021/01/25 04:31:31;;;;;;;2.10;0.70;;;10.30;64.30;;;;;;2097436;28;20048;-73
2021/01/25 04:32:35;;;;;;;2.20;0.90;;;10.30;62.50;;;;;;2097342;28;20060;-72
2021/01/25 04:33:38;;;;;;;2.00;0.80;;;10.50;61.30;;;;;;2097227;28;20497;-71
2021/01/25 04:34:39;;;;;;;0.98;0.52;;;10.40;62.50;;;;;;2097390;28;20040;-72
2021/01/25 04:35:41;;;;;;;1.23;0.90;;;10.50;62.50;;;;;;2097324;28;20091;-73
2021/01/25 04:36:43;;;;;;;3.13;1.23;;;10.30;60.00;;;;;;2097415;28;20056;-71
2021/01/25 04:37:45;;;;;;;2.92;1.55;;;10.30;60.40;;;;;;2097353;28;20044;-73
2021/01/25 04:38:46;;;;;;;1.42;0.88;;;10.00;59.70;;;;;;2097090;28;20048;-72
2021/01/25 04:39:48;;;;;;;0.88;0.68;;;10.20;63.30;;;;;;2097255;28;20057;-71
2021/01/25 04:40:50;;;;;;;;;;;10.20;60.30;;;;;;2097788;28;20061;-71
2021/01/25 04:41:51;;;;;;;3.40;1.23;;;10.10;63.00;;;;;;2097258;28;19921;-73
2021/01/25 04:42:55;;;;;;;3.58;1.40;;;10.10;59.60;;;;;;2097214;28;20428;-71
2021/01/25 04:44:01;;;;;;;3.92;1.40;;;9.90;60.80;;;;;;2097182;28;20044;-71
2021/01/25 04:45:04;;;;;;;3.17;1.08;;;9.40;62.00;;;;;;2097185;28;20447;-71
2021/01/25 04:46:07;;;;;;;2.72;1.17;;;9.40;63.00;;;;;;2096827;28;20052;-73
2021/01/25 04:47:10;;;;;;;3.00;1.02;;;9.90;63.50;;;;;;2097194;28;20093;-71
2021/01/25 04:48:13;;;;;;;1.48;0.55;;;9.90;63.00;;;;;;2097104;28;20044;-71
2021/01/25 04:49:16;;;;;;;3.13;1.60;;;10.70;63.40;;;;;;2097456;28;20074;-72
2021/01/25 04:50:18;;;;;;;1.02;0.80;;;10.70;58.50;;;;;;2097240;28;20049;-71
2021/01/25 04:51:23;;;;;;;1.80;1.00;;;10.30;62.10;;;;;;2097318;28;20440;-72
2021/01/25 04:52:26;;;;;;;1.25;0.80;;;10.10;60.20;;;;;;2097218;28;20052;-71
2021/01/25 04:53:29;;;;;;;2.47;1.15;;;9.90;64.00;;;;;;2097402;28;20052;-72
2021/01/25 04:54:32;;;;;;;2.72;1.13;;;10.30;62.40;;;;;;2097069;28;20405;-72
2021/01/25 04:55:35;;;;;;;1.75;0.90;;;10.10;59.80;;;;;;2097141;28;20425;-73
2021/01/25 04:56:37;;;;;;;1.63;0.90;;;10.20;63.40;;;;;;2096522;28;20048;-73
2021/01/25 04:57:39;;;;;;;;;;;10.70;61.30;;;;;;2097069;28;20094;-73
2021/01/25 04:58:41;;;;;;;1.75;0.90;;;10.90;62.20;;;;;;2097211;28;19920;-71
2021/01/25 04:59:44;;;;;;;4.85;1.30;;;10.90;59.30;;;;;;2097260;28;20408;-72
2021/01/25 05:00:46;;;;;;;3.42;1.23;;;10.00;59.80;;;;;;2097222;28;20045;-71
2021/01/25 05:01:48;;;;;;;1.10;1.00;;;9.70;60.50;;;;;;2097241;28;20055;-72
2021/01/25 05:02:50;;;;;;;;;;;10.00;63.20;;;;;;2097457;28;20048;-72
2021/01/25 05:03:52;;;;;;;2.42;0.90;;;9.90;61.70;;;;;;2097084;28;20357;-73
2021/01/25 05:04:54;;;;;;;1.38;0.70;;;10.20;61.40;;;;;;2097145;28;20048;-72
2021/01/25 05:05:56;;;;;;;1.65;0.68;;;9.90;62.40;;;;;;2097266;28;20394;-72
2021/01/25 05:06:58;;;;;;;0.88;0.70;;;10.00;62.80;;;;;;2097327;28;20048;-72
2021/01/25 05:07:59;;;;;;;2.92;1.15;;;10.10;63.40;;;;;;2097287;28;20056;-71
2021/01/25 05:09:01;;;;;;;1.85;1.30;;;9.90;61.10;;;;;;2097258;28;20064;-73
2021/01/25 05:10:05;;;;;;;3.70;1.30;;;9.10;62.80;;;;;;2097112;28;20055;-72
2021/01/25 05:11:11;;;;;;;2.05;1.20;;;9.10;63.90;;;;;;2097046;28;20477;-73
2021/01/25 05:12:13;;;;;;;2.28;0.90;;;9.40;66.50;;;;;;2097236;28;20060;-71
2021/01/25 05:13:21;;;;;;;1.25;0.60;;;9.50;66.00;;;;;;2097116;28;20047;-73
2021/01/25 05:14:23;;;;;;;1.05;0.60;;;10.10;65.90;;;;;;2097085;28;20048;-71
2021/01/25 05:15:27;;;;;;;1.85;1.00;;;10.30;63.80;;;;;;2097032;28;20400;-73
2021/01/25 05:16:30;;;;;;;2.22;0.93;;;10.40;63.40;;;;;;2097049;28;20488;-71
2021/01/25 05:17:32;;;;;;;4.07;1.30;;;10.30;61.50;;;;;;2097035;28;20059;-71
2021/01/25 05:18:35;;;;;;;2.38;1.17;;;10.10;61.50;;;;;;2097127;28;20086;-72
2021/01/25 05:19:40;;;;;;;2.28;1.17;;;10.20;61.20;;;;;;2096947;28;20146;-71
2021/01/25 05:20:41;;;;;;;1.55;0.95;;;9.80;60.80;;;;;;2097132;28;20049;-71
2021/01/25 05:21:44;;;;;;;2.85;1.25;;;9.80;64.80;;;;;;2097149;28;20041;-71
2021/01/25 05:22:45;;;;;;;2.85;1.80;;;10.30;63.70;;;;;;2097216;28;20052;-72
2021/01/25 05:23:47;;;;;;;0.98;0.88;;;10.10;60.20;;;;;;2098059;28;20167;-71
2021/01/25 05:24:50;;;;;;;2.80;1.45;;;10.10;63.00;;;;;;2098880;28;20044;-71
2021/01/25 05:25:52;;;;;;;1.88;1.30;;;10.10;62.20;;;;;;2098876;28;20052;-71
2021/01/25 05:26:59;;;;;;;2.17;1.17;;;9.80;62.20;;;;;;2098907;28;20048;-72
2021/01/25 05:28:02;;;;;;;2.60;1.10;;;10.00;62.70;;;;;;2098873;28;20048;-71
2021/01/25 05:29:04;;;;;;;1.20;0.90;;;10.40;62.80;;;;;;2098830;28;20061;-71